createdAt,value
2022-12-18T00:02:02.590Z,11.10
2022-12-18T00:04:30.041Z,11.20
2022-12-18T00:06:57.510Z,11.10
2022-12-18T00:09:25.186Z,11.20
2022-12-18T00:11:58.648Z,11.10
2022-12-18T00:14:25.825Z,11.10
2022-12-18T00:16:52.954Z,11.10
2022-12-18T00:19:20.294Z,11.20
2022-12-18T00:22:04.369Z,11.30
2022-12-18T00:24:31.753Z,11.40
2022-12-18T00:27:00.012Z,11.30
2022-12-18T00:29:29.618Z,11.40
2022-12-18T00:31:57.043Z,11.30
2022-12-18T00:34:24.500Z,11.20
2022-12-18T00:36:52.046Z,11.20
2022-12-18T00:39:19.936Z,11.10
2022-12-18T00:42:05.533Z,11.10
2022-12-18T00:44:33.039Z,11.10
2022-12-18T00:47:00.261Z,11.00
2022-12-18T00:49:27.639Z,11.00
2022-12-18T00:51:57.613Z,10.90
2022-12-18T00:57:28.170Z,10.90
2022-12-18T00:59:58.889Z,10.90
2022-12-18T01:02:42.013Z,10.90
2022-12-18T01:05:10.664Z,10.90
2022-12-18T01:07:38.871Z,10.80
2022-12-18T01:10:08.203Z,10.80
2022-12-18T01:12:35.572Z,10.60
2022-12-18T01:15:03.476Z,10.60
2022-12-18T01:17:30.810Z,10.60
2022-12-18T01:19:57.956Z,10.60
2022-12-18T01:22:25.303Z,10.60
2022-12-18T01:24:52.491Z,10.60
2022-12-18T01:27:20.834Z,10.60
2022-12-18T01:29:48.472Z,10.60
2022-12-18T01:32:15.931Z,10.60
2022-12-18T01:34:43.225Z,10.60
2022-12-18T01:37:10.664Z,10.50
2022-12-18T01:39:38.260Z,10.50
2022-12-18T01:42:15.287Z,10.50
2022-12-18T01:45:01.547Z,10.40
2022-12-18T01:47:48.995Z,10.40
2022-12-18T01:50:21.444Z,10.40
2022-12-18T01:52:55.134Z,10.50
2022-12-18T01:55:26.045Z,10.40
2022-12-18T01:57:56.707Z,10.40
2022-12-18T02:00:24.768Z,10.50
2022-12-18T02:02:52.926Z,10.40
2022-12-18T02:05:37.169Z,10.30
2022-12-18T02:08:37.759Z,10.30
2022-12-18T02:11:04.924Z,10.20
2022-12-18T02:13:32.553Z,10.20
2022-12-18T02:16:14.658Z,10.20
2022-12-18T02:18:46.900Z,10.10
2022-12-18T02:21:38.375Z,10.10
2022-12-18T02:24:18.862Z,10.10
2022-12-18T02:26:50.701Z,10.00
2022-12-18T02:29:24.155Z,10.00
2022-12-18T02:32:01.682Z,10.00
2022-12-18T02:34:32.705Z,10.00
2022-12-18T02:37:05.120Z,9.90
2022-12-18T02:39:34.734Z,9.90
2022-12-18T02:42:09.187Z,9.80
2022-12-18T02:44:44.488Z,9.70
2022-12-18T02:47:13.984Z,9.80
2022-12-18T02:49:50.079Z,9.80
2022-12-18T02:52:32.041Z,9.80
2022-12-18T02:55:12.977Z,9.70
2022-12-18T02:58:14.663Z,9.70
2022-12-18T03:00:54.752Z,9.60
2022-12-18T03:03:31.404Z,9.70
2022-12-18T03:06:04.965Z,9.60
2022-12-18T03:08:40.414Z,9.50
2022-12-18T03:11:10.529Z,9.50
2022-12-18T03:13:49.777Z,9.50
2022-12-18T03:16:23.713Z,9.50
2022-12-18T03:18:58.715Z,9.50
2022-12-18T03:21:48.346Z,9.50
2022-12-18T03:24:18.506Z,9.50
2022-12-18T03:26:49.766Z,9.50
2022-12-18T03:29:41.682Z,9.50
2022-12-18T03:32:27.114Z,9.50
2022-12-18T03:34:58.625Z,9.40
2022-12-18T03:37:25.852Z,9.30
2022-12-18T03:39:53.186Z,9.40
2022-12-18T03:42:31.115Z,9.40
2022-12-18T03:45:46.608Z,9.40
2022-12-18T03:48:45.877Z,9.40
2022-12-18T03:51:38.743Z,9.40
2022-12-18T03:54:07.936Z,9.40
2022-12-18T03:56:46.735Z,9.30
2022-12-18T03:59:17.266Z,9.30
2022-12-18T04:01:49.502Z,9.30
2022-12-18T04:04:19.324Z,9.30
2022-12-18T04:06:49.171Z,9.20
2022-12-18T04:09:16.455Z,9.20
2022-12-18T04:11:46.969Z,9.20
2022-12-18T04:14:17.637Z,9.20
2022-12-18T04:16:45.843Z,9.10
2022-12-18T04:19:13.098Z,9.10
2022-12-18T04:21:40.267Z,9.10
2022-12-18T04:24:07.772Z,9.00
2022-12-18T04:26:35.104Z,8.90
2022-12-18T04:29:02.419Z,9.00
2022-12-18T04:31:30.016Z,9.00
2022-12-18T04:34:15.670Z,9.00
2022-12-18T04:36:43.150Z,8.90
2022-12-18T04:39:10.696Z,9.00
2022-12-18T04:41:40.930Z,9.00
2022-12-18T04:44:08.338Z,8.90
2022-12-18T04:46:35.526Z,9.00
2022-12-18T04:49:02.748Z,9.00
2022-12-18T04:51:30.095Z,9.00
2022-12-18T04:53:57.240Z,9.00
2022-12-18T04:56:24.456Z,9.00
2022-12-18T04:58:51.916Z,8.90
2022-12-18T05:01:20.583Z,8.80
2022-12-18T05:03:48.187Z,8.80
2022-12-18T05:06:15.913Z,8.90
2022-12-18T05:08:42.944Z,8.90
2022-12-18T05:11:13.148Z,8.80
2022-12-18T05:13:40.940Z,8.80
2022-12-18T05:16:08.872Z,8.70
2022-12-18T05:18:36.948Z,8.70
2022-12-18T05:21:05.599Z,8.70
2022-12-18T05:23:36.059Z,8.60
2022-12-18T05:26:05.503Z,8.50
2022-12-18T05:28:34.490Z,8.50
2022-12-18T05:31:03.551Z,8.50
2022-12-18T05:33:33.482Z,8.50
2022-12-18T05:36:06.086Z,8.40
2022-12-18T05:38:35.851Z,8.30
2022-12-18T05:41:03.921Z,8.30
2022-12-18T05:43:31.610Z,8.30
2022-12-18T05:45:58.894Z,8.30
2022-12-18T05:48:26.170Z,8.30
2022-12-18T05:50:53.379Z,8.40
2022-12-18T05:53:21.689Z,8.40
2022-12-18T05:55:49.483Z,8.40
2022-12-18T05:58:17.010Z,8.50
2022-12-18T06:00:47.798Z,8.50
2022-12-18T06:03:15.340Z,8.50
2022-12-18T06:05:45.233Z,8.40
2022-12-18T06:08:15.188Z,8.40
2022-12-18T06:10:42.773Z,8.50
2022-12-18T06:13:10.492Z,8.50
2022-12-18T06:15:38.639Z,8.50
2022-12-18T06:18:05.933Z,8.50
2022-12-18T06:20:34.033Z,8.50
2022-12-18T06:23:01.817Z,8.50
2022-12-18T06:25:29.132Z,8.50
2022-12-18T06:27:57.965Z,8.50
2022-12-18T06:30:25.304Z,8.50
2022-12-18T06:32:56.697Z,8.70
2022-12-18T06:35:24.456Z,8.80
2022-12-18T06:37:51.906Z,8.90
2022-12-18T06:40:19.687Z,9.00
2022-12-18T06:43:04.743Z,9.00
2022-12-18T06:45:34.680Z,9.00
2022-12-18T06:48:02.027Z,9.00
2022-12-18T06:50:29.643Z,8.90
2022-12-18T06:52:59.679Z,8.90
2022-12-18T06:55:27.380Z,8.80
2022-12-18T06:57:54.719Z,8.80
2022-12-18T07:00:22.077Z,8.70
2022-12-18T07:02:49.406Z,8.70
2022-12-18T07:05:19.132Z,8.50
2022-12-18T07:07:46.357Z,8.60
2022-12-18T07:10:13.557Z,8.50
2022-12-18T07:12:45.238Z,8.50
2022-12-18T07:15:12.529Z,8.50
2022-12-18T07:17:39.815Z,8.50
2022-12-18T07:20:07.591Z,8.50
2022-12-18T07:22:35.105Z,8.50
2022-12-18T07:25:05.018Z,8.60
2022-12-18T07:27:32.143Z,8.70
2022-12-18T07:29:59.957Z,8.70
2022-12-18T07:32:27.132Z,8.60
2022-12-18T07:34:54.261Z,8.70
2022-12-18T07:37:21.415Z,8.70
2022-12-18T07:39:48.642Z,8.70
2022-12-18T07:42:34.978Z,8.80
2022-12-18T07:45:03.300Z,8.80
2022-12-18T07:47:37.193Z,8.80
2022-12-18T07:50:05.796Z,8.70
2022-12-18T07:52:34.952Z,8.70
2022-12-18T07:55:02.142Z,8.60
2022-12-18T08:00:17.583Z,8.60
2022-12-18T08:02:45.129Z,8.60
2022-12-18T08:05:12.359Z,8.70
2022-12-18T08:07:42.208Z,8.70
2022-12-18T08:10:12.060Z,8.60
2022-12-18T08:12:39.205Z,8.60
2022-12-18T08:15:07.379Z,8.70
2022-12-18T08:17:34.545Z,8.70
2022-12-18T08:20:02.897Z,8.90
2022-12-18T08:22:30.175Z,8.90
2022-12-18T08:24:57.574Z,8.90
2022-12-18T08:27:31.721Z,8.90
2022-12-18T08:29:59.487Z,8.90
2022-12-18T08:32:27.863Z,8.90
2022-12-18T08:34:55.008Z,8.90
2022-12-18T08:37:22.189Z,8.90
2022-12-18T08:39:49.289Z,8.80
2022-12-18T08:42:35.253Z,9.00
2022-12-18T08:45:07.883Z,9.00
2022-12-18T08:47:37.802Z,9.10
2022-12-18T08:50:05.218Z,9.10
2022-12-18T08:52:34.556Z,9.10
2022-12-18T08:55:02.056Z,9.00
2022-12-18T08:57:31.817Z,8.80
2022-12-18T08:59:58.930Z,8.80
2022-12-18T09:02:26.296Z,8.90
2022-12-18T09:04:57.272Z,9.20
2022-12-18T09:07:25.064Z,9.40
2022-12-18T09:09:54.324Z,9.50
2022-12-18T09:12:21.467Z,9.20
2022-12-18T09:14:51.546Z,9.10
2022-12-18T09:17:27.832Z,9.00
2022-12-18T09:19:58.705Z,9.00
2022-12-18T09:22:31.316Z,8.90
2022-12-18T09:24:58.416Z,9.10
2022-12-18T09:27:25.731Z,9.10
2022-12-18T09:29:55.891Z,9.20
2022-12-18T09:32:23.019Z,9.20
2022-12-18T09:34:50.639Z,9.30
2022-12-18T09:37:21.027Z,9.50
2022-12-18T09:39:50.953Z,9.60
2022-12-18T09:42:24.497Z,9.60
2022-12-18T09:44:57.181Z,9.50
2022-12-18T09:47:38.408Z,9.50
2022-12-18T09:50:22.147Z,9.70
2022-12-18T09:52:56.748Z,9.80
2022-12-18T09:55:25.158Z,9.90
2022-12-18T09:58:07.045Z,10.00
2022-12-18T10:00:38.611Z,10.00
2022-12-18T10:03:15.707Z,10.00
2022-12-18T10:05:57.575Z,10.10
2022-12-18T10:08:59.979Z,10.10
2022-12-18T10:11:42.508Z,10.00
2022-12-18T10:14:22.219Z,9.70
2022-12-18T10:17:22.300Z,9.80
2022-12-18T10:19:58.456Z,9.80
2022-12-18T10:22:50.160Z,10.00
2022-12-18T10:25:31.740Z,9.80
2022-12-18T10:28:12.526Z,9.90
2022-12-18T10:30:41.199Z,10.00
2022-12-18T10:33:20.796Z,10.00
2022-12-18T10:35:54.776Z,10.00
2022-12-18T10:38:33.085Z,10.00
2022-12-18T10:41:04.828Z,10.10
2022-12-18T10:43:34.324Z,10.00
2022-12-18T10:46:09.132Z,10.10
2022-12-18T10:48:55.294Z,10.10
2022-12-18T10:51:32.184Z,9.90
2022-12-18T10:54:06.721Z,9.70
2022-12-18T10:56:37.628Z,9.60
2022-12-18T10:59:16.559Z,9.60
2022-12-18T11:01:48.340Z,9.80
2022-12-18T11:04:35.220Z,9.70
2022-12-18T11:07:15.287Z,9.70
2022-12-18T11:09:42.602Z,9.70
2022-12-18T11:12:21.359Z,9.60
2022-12-18T11:14:59.280Z,9.70
2022-12-18T11:17:31.476Z,9.60
2022-12-18T11:20:05.085Z,9.50
2022-12-18T11:22:38.211Z,9.40
2022-12-18T11:25:32.942Z,9.20
2022-12-18T11:28:08.591Z,9.20
2022-12-18T11:30:39.343Z,9.10
2022-12-18T11:33:18.573Z,9.10
2022-12-18T11:36:04.862Z,9.10
2022-12-18T11:38:40.655Z,9.00
2022-12-18T11:42:02.542Z,9.10
2022-12-18T11:44:35.848Z,9.00
2022-12-18T11:47:21.100Z,9.00
2022-12-18T11:49:51.274Z,9.10
2022-12-18T11:52:28.085Z,9.10
2022-12-18T11:55:02.453Z,8.90
2022-12-18T11:57:38.531Z,8.90
2022-12-18T12:00:22.277Z,8.90
2022-12-18T12:03:22.368Z,8.90
2022-12-18T12:05:56.289Z,8.80
2022-12-18T12:08:32.885Z,8.70
2022-12-18T12:11:23.928Z,8.60
2022-12-18T12:14:11.447Z,8.70
2022-12-18T12:16:49.259Z,8.60
2022-12-18T12:19:32.584Z,8.50
2022-12-18T12:22:25.707Z,8.50
2022-12-18T12:24:58.517Z,8.50
2022-12-18T12:28:13.042Z,8.40
2022-12-18T12:30:55.010Z,8.40
2022-12-18T12:33:28.765Z,8.50
2022-12-18T12:36:15.824Z,8.50
2022-12-18T12:38:52.119Z,8.50
2022-12-18T12:41:44.894Z,8.70
2022-12-18T12:44:27.681Z,8.60
2022-12-18T12:47:01.739Z,8.70
2022-12-18T12:49:35.238Z,8.60
2022-12-18T12:52:30.941Z,8.50
2022-12-18T12:54:59.271Z,8.60
2022-12-18T12:57:35.871Z,8.60
2022-12-18T13:00:05.901Z,8.60
2022-12-18T13:03:02.764Z,8.70
2022-12-18T13:05:29.832Z,8.50
2022-12-18T13:08:08.334Z,8.40
2022-12-18T13:10:42.873Z,8.40
2022-12-18T13:13:13.380Z,8.40
2022-12-18T13:15:51.531Z,8.50
2022-12-18T13:18:24.508Z,8.50
2022-12-18T13:21:13.039Z,8.60
2022-12-18T13:23:40.957Z,8.60
2022-12-18T13:26:13.701Z,8.60
2022-12-18T13:28:49.692Z,8.60
2022-12-18T13:31:42.863Z,8.50
2022-12-18T13:34:27.594Z,8.40
2022-12-18T13:36:58.568Z,8.60
2022-12-18T13:39:34.872Z,8.50
2022-12-18T13:42:08.801Z,8.50
2022-12-18T13:44:41.840Z,8.50
2022-12-18T13:47:38.500Z,8.50
2022-12-18T13:50:33.938Z,8.50
2022-12-18T13:53:05.937Z,8.40
2022-12-18T13:55:33.662Z,8.40
2022-12-18T13:58:07.514Z,8.30
2022-12-18T14:00:35.337Z,8.30
2022-12-18T14:03:02.910Z,8.30
2022-12-18T14:05:32.078Z,8.40
2022-12-18T14:08:15.514Z,8.50
2022-12-18T14:10:50.050Z,8.50
2022-12-18T14:13:33.444Z,8.50
2022-12-18T14:16:08.648Z,8.50
2022-12-18T14:19:01.953Z,8.50
2022-12-18T14:21:42.264Z,8.50
2022-12-18T14:24:27.241Z,8.50
2022-12-18T14:26:54.613Z,8.60
2022-12-18T14:29:34.305Z,8.50
2022-12-18T14:32:20.951Z,8.40
2022-12-18T14:34:51.041Z,8.30
2022-12-18T14:37:28.797Z,8.30
2022-12-18T14:40:11.740Z,8.20
2022-12-18T14:42:41.703Z,8.30
2022-12-18T14:45:43.345Z,8.20
2022-12-18T14:48:29.660Z,8.20
2022-12-18T14:51:06.183Z,8.20
2022-12-18T14:53:54.070Z,8.30
2022-12-18T14:56:27.462Z,8.30
2022-12-18T14:59:22.246Z,8.20
2022-12-18T15:02:12.904Z,8.30
2022-12-18T15:04:45.032Z,8.50
2022-12-18T15:07:12.295Z,8.20
2022-12-18T15:09:41.127Z,8.20
2022-12-18T15:12:58.046Z,8.10
2022-12-18T15:18:22.763Z,8.20
2022-12-18T15:20:57.504Z,8.30
2022-12-18T15:23:35.466Z,8.20
2022-12-18T15:26:09.867Z,8.20
2022-12-18T15:28:50.839Z,8.10
2022-12-18T15:31:18.257Z,8.10
2022-12-18T15:33:47.275Z,8.10
2022-12-18T15:36:18.006Z,8.10
2022-12-18T15:38:55.129Z,8.20
2022-12-18T15:41:24.857Z,8.10
2022-12-18T15:43:54.071Z,8.10
2022-12-18T15:46:23.868Z,8.10
2022-12-18T15:48:58.103Z,8.10
2022-12-18T15:51:36.393Z,8.10
2022-12-18T15:54:12.103Z,8.20
2022-12-18T15:56:57.919Z,8.10
2022-12-18T15:59:25.882Z,8.10
2022-12-18T16:01:54.453Z,8.20
2022-12-18T16:04:23.119Z,8.20
2022-12-18T16:07:14.013Z,8.20
2022-12-18T16:09:39.741Z,8.20
2022-12-18T16:12:19.992Z,8.20
2022-12-18T16:14:47.897Z,8.10
2022-12-18T16:17:17.053Z,8.10
2022-12-18T16:19:48.491Z,8.00
2022-12-18T16:22:28.341Z,8.10
2022-12-18T16:24:56.914Z,8.10
2022-12-18T16:27:26.413Z,8.00
2022-12-18T16:30:01.923Z,8.00
2022-12-18T16:32:43.103Z,8.00
2022-12-18T16:35:14.406Z,7.90
2022-12-18T16:37:42.712Z,8.00
2022-12-18T16:40:14.455Z,8.00
2022-12-18T16:42:43.666Z,7.90
2022-12-18T16:45:17.866Z,7.90
2022-12-18T16:47:45.976Z,7.90
2022-12-18T16:50:14.827Z,8.10
2022-12-18T16:52:44.389Z,8.10
2022-12-18T16:55:14.379Z,8.20
2022-12-18T16:57:42.186Z,8.00
2022-12-18T17:00:10.364Z,7.90
2022-12-18T17:02:37.730Z,7.90
2022-12-18T17:05:07.670Z,8.00
2022-12-18T17:07:40.399Z,8.10
2022-12-18T17:10:07.964Z,8.10
2022-12-18T17:12:52.922Z,8.00
2022-12-18T17:15:24.186Z,7.90
2022-12-18T17:17:51.346Z,7.90
2022-12-18T17:20:18.793Z,8.00
2022-12-18T17:22:47.232Z,8.00
2022-12-18T17:25:23.597Z,8.00
2022-12-18T17:27:54.886Z,8.00
2022-12-18T17:30:22.148Z,8.10
2022-12-18T17:32:49.276Z,8.00
2022-12-18T17:35:16.463Z,8.00
2022-12-18T17:37:49.544Z,8.00
2022-12-18T17:40:16.702Z,8.00
2022-12-18T17:42:43.983Z,8.00
2022-12-18T17:45:11.342Z,8.10
2022-12-18T17:47:39.004Z,8.10
2022-12-18T17:50:06.558Z,8.00
2022-12-18T17:52:38.507Z,8.10
2022-12-18T17:55:18.233Z,8.10
2022-12-18T17:57:49.265Z,8.10
2022-12-18T18:00:16.923Z,8.10
2022-12-18T18:02:44.078Z,8.10
2022-12-18T18:05:12.427Z,8.10
2022-12-18T18:07:52.266Z,8.20
2022-12-18T18:10:23.951Z,8.20
2022-12-18T18:13:10.559Z,8.10
2022-12-18T18:15:43.442Z,8.10
2022-12-18T18:18:10.581Z,8.10
2022-12-18T18:20:41.667Z,8.20
2022-12-18T18:23:08.847Z,8.20
2022-12-18T18:26:13.033Z,8.20
2022-12-18T18:28:42.932Z,8.40
2022-12-18T18:31:11.034Z,8.50
2022-12-18T18:33:40.105Z,8.50
2022-12-18T18:36:13.045Z,8.50
2022-12-18T18:38:45.378Z,8.50
2022-12-18T18:41:16.274Z,8.50
2022-12-18T18:43:48.669Z,8.50
2022-12-18T18:46:16.870Z,8.40
2022-12-18T18:48:45.900Z,8.40
2022-12-18T18:51:21.184Z,8.30
2022-12-18T18:53:53.151Z,8.30
2022-12-18T18:57:03.750Z,8.30
2022-12-18T18:59:09.928Z,8.30
2022-12-18T19:01:46.703Z,8.30
2022-12-18T19:04:46.188Z,8.20
2022-12-18T19:07:30.223Z,8.10
2022-12-18T19:10:04.825Z,8.10
2022-12-18T19:12:58.657Z,8.10
2022-12-18T19:15:29.609Z,8.00
2022-12-18T19:18:01.744Z,8.10
2022-12-18T19:20:28.980Z,8.00
2022-12-18T19:22:57.286Z,8.10
2022-12-18T19:25:31.015Z,8.10
2022-12-18T19:28:13.516Z,8.00
2022-12-18T19:30:49.882Z,8.10
2022-12-18T19:33:41.677Z,8.10
2022-12-18T19:36:21.823Z,8.20
2022-12-18T19:39:02.756Z,8.40
2022-12-18T19:41:33.980Z,8.40
2022-12-18T19:44:02.460Z,8.40
2022-12-18T19:46:35.925Z,8.30
2022-12-18T19:49:03.814Z,8.30
2022-12-18T19:51:32.627Z,8.30
2022-12-18T19:54:01.813Z,8.20
2022-12-18T19:56:36.319Z,8.10
2022-12-18T19:59:05.229Z,8.10
2022-12-18T20:01:32.982Z,8.10
2022-12-18T20:04:04.165Z,8.10
2022-12-18T20:06:52.722Z,8.00
2022-12-18T20:09:23.267Z,8.10
2022-12-18T20:11:51.602Z,8.20
2022-12-18T20:14:22.673Z,8.40
2022-12-18T20:16:52.311Z,8.40
2022-12-18T20:19:21.937Z,8.30
2022-12-18T20:21:56.183Z,8.40
2022-12-18T20:24:27.104Z,8.30
2022-12-18T20:26:54.869Z,8.20
2022-12-18T20:29:22.257Z,8.10
2022-12-18T20:31:49.561Z,8.00
2022-12-18T20:34:29.486Z,8.00
2022-12-18T20:37:02.238Z,8.00
2022-12-18T20:39:31.063Z,7.90
2022-12-18T20:41:58.607Z,7.90
2022-12-18T20:44:25.943Z,8.00
2022-12-18T20:47:00.366Z,8.00
2022-12-18T20:49:31.632Z,7.90
2022-12-18T20:51:59.026Z,7.90
2022-12-18T20:54:37.171Z,7.90
2022-12-18T20:57:06.004Z,7.90
2022-12-18T20:59:33.437Z,7.90
2022-12-18T21:02:22.116Z,7.80
2022-12-18T21:04:49.693Z,7.70
2022-12-18T21:07:19.435Z,7.70
2022-12-18T21:09:46.609Z,7.60
2022-12-18T21:12:40.450Z,7.50
2022-12-18T21:15:16.111Z,7.50
2022-12-18T21:17:45.542Z,7.40
2022-12-18T21:20:17.479Z,7.40
2022-12-18T21:22:47.758Z,7.40
2022-12-18T21:25:15.058Z,7.30
2022-12-18T21:27:42.410Z,7.30
2022-12-18T21:30:10.183Z,7.30
2022-12-18T21:32:38.370Z,7.20
2022-12-18T21:35:05.980Z,7.20
2022-12-18T21:37:33.801Z,7.20
2022-12-18T21:40:04.673Z,7.10
2022-12-18T21:42:50.787Z,7.00
2022-12-18T21:45:17.918Z,7.00
2022-12-18T21:50:52.913Z,6.80
2022-12-18T21:53:22.738Z,6.70
2022-12-18T21:55:59.472Z,6.70
2022-12-18T21:58:31.078Z,6.60
2022-12-18T22:01:01.395Z,6.50
2022-12-18T22:03:28.786Z,6.40
2022-12-18T22:06:08.964Z,6.40
2022-12-18T22:08:37.006Z,6.30
2022-12-18T22:11:15.348Z,6.30
2022-12-18T22:13:47.114Z,6.30
2022-12-18T22:19:04.172Z,6.10
2022-12-18T22:21:33.285Z,6.00
2022-12-18T22:24:03.106Z,6.00
2022-12-18T22:26:36.517Z,5.90
2022-12-18T22:29:34.863Z,6.00
2022-12-18T22:32:03.159Z,6.10
2022-12-18T22:34:36.500Z,6.00
2022-12-18T22:37:04.084Z,5.90
2022-12-18T22:39:31.911Z,5.80
2022-12-18T22:41:59.958Z,5.80
2022-12-18T22:44:28.227Z,5.80
2022-12-18T22:47:06.469Z,5.70
2022-12-18T22:49:35.883Z,5.70
2022-12-18T22:52:04.858Z,5.80
2022-12-18T22:54:34.358Z,5.70
2022-12-18T22:57:01.991Z,5.40
2022-12-18T22:59:30.567Z,5.30
2022-12-18T23:02:00.047Z,5.30
2022-12-18T23:04:35.142Z,5.30
2022-12-18T23:07:08.573Z,5.30
2022-12-18T23:09:38.909Z,5.30
2022-12-18T23:12:06.726Z,5.30
2022-12-18T23:14:33.965Z,5.20
2022-12-18T23:17:01.408Z,5.00
2022-12-18T23:19:29.446Z,5.00
2022-12-18T23:21:59.199Z,5.00
2022-12-18T23:24:28.785Z,5.00
2022-12-18T23:26:58.753Z,5.20
2022-12-18T23:29:26.136Z,5.30
2022-12-18T23:31:53.771Z,5.20
2022-12-18T23:34:21.051Z,5.00
2022-12-18T23:36:53.270Z,5.00
2022-12-18T23:39:29.572Z,5.00
2022-12-18T23:42:01.031Z,4.90
2022-12-18T23:44:29.075Z,5.00
2022-12-18T23:46:59.150Z,4.90
2022-12-18T23:49:31.924Z,4.90
2022-12-18T23:52:00.008Z,4.80
2022-12-18T23:54:33.597Z,4.80
2022-12-18T23:57:01.906Z,4.90
2022-12-18T23:59:29.088Z,4.80
